sensor_id;sensor_type;location;lat;lon;timestamp;P1;durP1;ratioP1;P2;durP2;ratioP2
35606;SDS011;21729;58.392;15.656;2024-03-22T00:02:09;4.23;;;3.60;;
35606;SDS011;21729;58.392;15.656;2024-03-22T00:04:36;5.38;;;3.67;;
35606;SDS011;21729;58.392;15.656;2024-03-22T00:07:03;6.43;;;4.05;;
35606;SDS011;21729;58.392;15.656;2024-03-22T00:09:30;6.57;;;4.20;;
35606;SDS011;21729;58.392;15.656;2024-03-22T00:11:56;5.88;;;3.58;;
35606;SDS011;21729;58.392;15.656;2024-03-22T00:14:23;5.35;;;3.80;;
35606;SDS011;21729;58.392;15.656;2024-03-22T00:16:51;5.80;;;3.70;;
35606;SDS011;21729;58.392;15.656;2024-03-22T00:19:18;6.68;;;3.80;;
35606;SDS011;21729;58.392;15.656;2024-03-22T00:21:44;6.47;;;3.78;;
35606;SDS011;21729;58.392;15.656;2024-03-22T00:24:11;5.47;;;3.60;;
35606;SDS011;21729;58.392;15.656;2024-03-22T00:26:37;4.13;;;3.63;;
35606;SDS011;21729;58.392;15.656;2024-03-22T00:29:04;6.10;;;3.40;;
35606;SDS011;21729;58.392;15.656;2024-03-22T00:31:30;5.63;;;3.80;;
35606;SDS011;21729;58.392;15.656;2024-03-22T00:33:58;4.55;;;3.63;;
35606;SDS011;21729;58.392;15.656;2024-03-22T00:36:24;4.88;;;3.58;;
35606;SDS011;21729;58.392;15.656;2024-03-22T00:38:51;4.60;;;3.55;;
35606;SDS011;21729;58.392;15.656;2024-03-22T00:41:17;4.43;;;3.50;;
35606;SDS011;21729;58.392;15.656;2024-03-22T00:43:44;6.13;;;3.78;;
35606;SDS011;21729;58.392;15.656;2024-03-22T00:46:10;5.65;;;3.55;;
35606;SDS011;21729;58.392;15.656;2024-03-22T00:48:37;6.57;;;3.33;;
35606;SDS011;21729;58.392;15.656;2024-03-22T00:51:05;4.75;;;3.28;;
35606;SDS011;21729;58.392;15.656;2024-03-22T00:53:32;5.37;;;3.27;;
35606;SDS011;21729;58.392;15.656;2024-03-22T00:55:58;4.00;;;3.60;;
35606;SDS011;21729;58.392;15.656;2024-03-22T00:58:26;6.38;;;3.80;;
35606;SDS011;21729;58.392;15.656;2024-03-22T01:00:52;4.20;;;3.28;;
35606;SDS011;21729;58.392;15.656;2024-03-22T01:03:19;5.63;;;3.30;;
35606;SDS011;21729;58.392;15.656;2024-03-22T01:05:45;5.47;;;3.40;;
35606;SDS011;21729;58.392;15.656;2024-03-22T01:08:14;4.25;;;3.22;;
35606;SDS011;21729;58.392;15.656;2024-03-22T01:10:40;4.97;;;3.28;;
35606;SDS011;21729;58.392;15.656;2024-03-22T01:13:07;3.92;;;3.00;;
35606;SDS011;21729;58.392;15.656;2024-03-22T01:15:33;4.55;;;3.20;;
35606;SDS011;21729;58.392;15.656;2024-03-22T01:18:00;4.40;;;3.25;;
35606;SDS011;21729;58.392;15.656;2024-03-22T01:20:26;5.20;;;3.25;;
35606;SDS011;21729;58.392;15.656;2024-03-22T01:22:54;4.43;;;3.25;;
35606;SDS011;21729;58.392;15.656;2024-03-22T01:25:21;3.50;;;2.80;;
35606;SDS011;21729;58.392;15.656;2024-03-22T01:27:48;5.13;;;2.70;;
35606;SDS011;21729;58.392;15.656;2024-03-22T01:30:14;4.80;;;2.60;;
35606;SDS011;21729;58.392;15.656;2024-03-22T01:32:41;4.00;;;2.88;;
35606;SDS011;21729;58.392;15.656;2024-03-22T01:35:08;3.80;;;2.67;;
35606;SDS011;21729;58.392;15.656;2024-03-22T01:37:35;4.20;;;2.80;;
35606;SDS011;21729;58.392;15.656;2024-03-22T01:40:02;3.92;;;2.90;;
35606;SDS011;21729;58.392;15.656;2024-03-22T01:42:31;2.95;;;2.60;;
35606;SDS011;21729;58.392;15.656;2024-03-22T01:44:58;3.28;;;2.47;;
35606;SDS011;21729;58.392;15.656;2024-03-22T01:47:24;3.00;;;2.70;;
35606;SDS011;21729;58.392;15.656;2024-03-22T01:49:52;2.95;;;2.33;;
35606;SDS011;21729;58.392;15.656;2024-03-22T01:52:21;3.53;;;2.40;;
35606;SDS011;21729;58.392;15.656;2024-03-22T01:54:48;3.30;;;2.38;;
35606;SDS011;21729;58.392;15.656;2024-03-22T01:57:14;2.65;;;2.28;;
35606;SDS011;21729;58.392;15.656;2024-03-22T01:59:43;2.95;;;2.10;;
35606;SDS011;21729;58.392;15.656;2024-03-22T02:02:11;2.92;;;2.35;;
35606;SDS011;21729;58.392;15.656;2024-03-22T02:04:42;3.25;;;2.10;;
35606;SDS011;21729;58.392;15.656;2024-03-22T02:07:08;2.25;;;2.03;;
35606;SDS011;21729;58.392;15.656;2024-03-22T02:09:37;2.38;;;2.03;;
35606;SDS011;21729;58.392;15.656;2024-03-22T02:12:04;2.28;;;2.00;;
35606;SDS011;21729;58.392;15.656;2024-03-22T02:14:31;2.55;;;2.10;;
35606;SDS011;21729;58.392;15.656;2024-03-22T02:16:59;2.88;;;2.10;;
35606;SDS011;21729;58.392;15.656;2024-03-22T02:19:26;2.65;;;2.00;;
35606;SDS011;21729;58.392;15.656;2024-03-22T02:21:52;3.08;;;2.30;;
35606;SDS011;21729;58.392;15.656;2024-03-22T02:24:20;3.25;;;2.10;;
35606;SDS011;21729;58.392;15.656;2024-03-22T02:26:46;2.47;;;1.75;;
35606;SDS011;21729;58.392;15.656;2024-03-22T02:29:13;3.58;;;2.40;;
35606;SDS011;21729;58.392;15.656;2024-03-22T02:31:39;2.78;;;2.10;;
35606;SDS011;21729;58.392;15.656;2024-03-22T02:34:06;2.95;;;2.28;;
35606;SDS011;21729;58.392;15.656;2024-03-22T02:36:32;2.95;;;2.20;;
35606;SDS011;21729;58.392;15.656;2024-03-22T02:38:59;3.72;;;2.17;;
35606;SDS011;21729;58.392;15.656;2024-03-22T02:41:26;2.63;;;2.22;;
35606;SDS011;21729;58.392;15.656;2024-03-22T02:43:53;2.75;;;2.28;;
35606;SDS011;21729;58.392;15.656;2024-03-22T02:46:19;3.05;;;2.60;;
35606;SDS011;21729;58.392;15.656;2024-03-22T02:48:46;4.45;;;2.50;;
35606;SDS011;21729;58.392;15.656;2024-03-22T02:51:12;3.50;;;2.47;;
35606;SDS011;21729;58.392;15.656;2024-03-22T02:53:39;3.25;;;2.40;;
35606;SDS011;21729;58.392;15.656;2024-03-22T02:56:05;3.03;;;2.42;;
35606;SDS011;21729;58.392;15.656;2024-03-22T02:58:36;3.90;;;2.70;;
35606;SDS011;21729;58.392;15.656;2024-03-22T03:01:02;3.63;;;2.47;;
35606;SDS011;21729;58.392;15.656;2024-03-22T03:03:29;3.00;;;2.70;;
35606;SDS011;21729;58.392;15.656;2024-03-22T03:05:55;3.40;;;2.80;;
35606;SDS011;21729;58.392;15.656;2024-03-22T03:08:22;3.05;;;2.60;;
35606;SDS011;21729;58.392;15.656;2024-03-22T03:10:48;3.95;;;2.95;;
35606;SDS011;21729;58.392;15.656;2024-03-22T03:13:15;3.67;;;3.00;;
35606;SDS011;21729;58.392;15.656;2024-03-22T03:15:42;3.65;;;2.90;;
35606;SDS011;21729;58.392;15.656;2024-03-22T03:18:09;4.18;;;2.90;;
35606;SDS011;21729;58.392;15.656;2024-03-22T03:20:35;3.92;;;3.00;;
35606;SDS011;21729;58.392;15.656;2024-03-22T03:23:02;3.42;;;2.95;;
35606;SDS011;21729;58.392;15.656;2024-03-22T03:25:30;3.80;;;2.92;;
35606;SDS011;21729;58.392;15.656;2024-03-22T03:27:56;3.85;;;2.95;;
35606;SDS011;21729;58.392;15.656;2024-03-22T03:30:23;4.10;;;3.10;;
35606;SDS011;21729;58.392;15.656;2024-03-22T03:32:50;4.07;;;3.15;;
35606;SDS011;21729;58.392;15.656;2024-03-22T03:35:17;3.65;;;3.30;;
35606;SDS011;21729;58.392;15.656;2024-03-22T03:37:44;4.30;;;3.40;;
35606;SDS011;21729;58.392;15.656;2024-03-22T03:40:11;4.50;;;3.53;;
35606;SDS011;21729;58.392;15.656;2024-03-22T03:42:37;4.95;;;3.70;;
35606;SDS011;21729;58.392;15.656;2024-03-22T03:45:04;3.88;;;3.50;;
35606;SDS011;21729;58.392;15.656;2024-03-22T03:47:31;4.80;;;3.83;;
35606;SDS011;21729;58.392;15.656;2024-03-22T03:49:59;4.32;;;3.85;;
35606;SDS011;21729;58.392;15.656;2024-03-22T03:52:25;4.93;;;3.90;;
35606;SDS011;21729;58.392;15.656;2024-03-22T03:54:52;5.13;;;4.25;;
35606;SDS011;21729;58.392;15.656;2024-03-22T03:57:18;5.47;;;4.00;;
35606;SDS011;21729;58.392;15.656;2024-03-22T03:59:45;5.22;;;3.92;;
35606;SDS011;21729;58.392;15.656;2024-03-22T04:02:11;5.27;;;4.27;;
35606;SDS011;21729;58.392;15.656;2024-03-22T04:04:38;4.63;;;4.10;;
35606;SDS011;21729;58.392;15.656;2024-03-22T04:07:06;5.53;;;4.43;;
35606;SDS011;21729;58.392;15.656;2024-03-22T04:09:33;5.20;;;4.22;;
35606;SDS011;21729;58.392;15.656;2024-03-22T04:11:59;5.10;;;3.95;;
35606;SDS011;21729;58.392;15.656;2024-03-22T04:14:26;5.75;;;4.70;;
35606;SDS011;21729;58.392;15.656;2024-03-22T04:16:52;5.40;;;4.43;;
35606;SDS011;21729;58.392;15.656;2024-03-22T04:19:21;5.53;;;4.47;;
35606;SDS011;21729;58.392;15.656;2024-03-22T04:21:47;5.60;;;4.30;;
35606;SDS011;21729;58.392;15.656;2024-03-22T04:24:17;5.00;;;4.50;;
35606;SDS011;21729;58.392;15.656;2024-03-22T04:26:43;6.10;;;4.63;;
35606;SDS011;21729;58.392;15.656;2024-03-22T04:29:10;5.67;;;4.70;;
35606;SDS011;21729;58.392;15.656;2024-03-22T04:31:36;5.43;;;4.55;;
35606;SDS011;21729;58.392;15.656;2024-03-22T04:34:03;5.57;;;4.75;;
35606;SDS011;21729;58.392;15.656;2024-03-22T04:36:30;5.47;;;4.63;;
35606;SDS011;21729;58.392;15.656;2024-03-22T04:38:58;5.20;;;4.57;;
35606;SDS011;21729;58.392;15.656;2024-03-22T04:41:26;6.50;;;4.63;;
35606;SDS011;21729;58.392;15.656;2024-03-22T04:43:52;6.28;;;4.90;;
35606;SDS011;21729;58.392;15.656;2024-03-22T04:46:19;6.80;;;4.80;;
35606;SDS011;21729;58.392;15.656;2024-03-22T04:48:45;6.43;;;5.18;;
35606;SDS011;21729;58.392;15.656;2024-03-22T04:51:12;5.63;;;4.68;;
35606;SDS011;21729;58.392;15.656;2024-03-22T04:53:40;5.65;;;4.82;;
35606;SDS011;21729;58.392;15.656;2024-03-22T04:56:06;7.13;;;4.82;;
35606;SDS011;21729;58.392;15.656;2024-03-22T04:58:35;6.72;;;4.80;;
35606;SDS011;21729;58.392;15.656;2024-03-22T05:01:01;6.20;;;4.90;;
35606;SDS011;21729;58.392;15.656;2024-03-22T05:03:29;6.13;;;4.80;;
35606;SDS011;21729;58.392;15.656;2024-03-22T05:05:56;6.75;;;5.10;;
35606;SDS011;21729;58.392;15.656;2024-03-22T05:08:23;6.55;;;5.22;;
35606;SDS011;21729;58.392;15.656;2024-03-22T05:10:49;6.40;;;4.80;;
35606;SDS011;21729;58.392;15.656;2024-03-22T05:13:16;5.82;;;4.78;;
35606;SDS011;21729;58.392;15.656;2024-03-22T05:15:44;5.30;;;4.60;;
35606;SDS011;21729;58.392;15.656;2024-03-22T05:18:11;5.10;;;4.60;;
35606;SDS011;21729;58.392;15.656;2024-03-22T05:20:37;6.13;;;4.88;;
35606;SDS011;21729;58.392;15.656;2024-03-22T05:23:04;6.38;;;4.82;;
35606;SDS011;21729;58.392;15.656;2024-03-22T05:25:30;5.65;;;4.40;;
35606;SDS011;21729;58.392;15.656;2024-03-22T05:27:57;6.35;;;4.78;;
35606;SDS011;21729;58.392;15.656;2024-03-22T05:30:23;5.95;;;4.60;;
35606;SDS011;21729;58.392;15.656;2024-03-22T05:32:51;5.90;;;4.70;;
35606;SDS011;21729;58.392;15.656;2024-03-22T05:35:18;6.45;;;4.95;;
35606;SDS011;21729;58.392;15.656;2024-03-22T05:37:45;4.90;;;4.30;;
35606;SDS011;21729;58.392;15.656;2024-03-22T05:40:11;4.90;;;4.40;;
35606;SDS011;21729;58.392;15.656;2024-03-22T05:42:39;6.50;;;4.65;;
35606;SDS011;21729;58.392;15.656;2024-03-22T05:45:05;4.93;;;4.22;;
35606;SDS011;21729;58.392;15.656;2024-03-22T05:47:33;4.75;;;4.25;;
35606;SDS011;21729;58.392;15.656;2024-03-22T05:50:00;4.55;;;3.92;;
35606;SDS011;21729;58.392;15.656;2024-03-22T05:52:27;5.95;;;4.72;;
35606;SDS011;21729;58.392;15.656;2024-03-22T05:54:54;4.75;;;3.95;;
35606;SDS011;21729;58.392;15.656;2024-03-22T05:57:21;4.30;;;3.80;;
35606;SDS011;21729;58.392;15.656;2024-03-22T05:59:47;4.85;;;3.95;;
35606;SDS011;21729;58.392;15.656;2024-03-22T06:02:14;4.57;;;3.83;;
35606;SDS011;21729;58.392;15.656;2024-03-22T06:04:41;5.82;;;4.30;;
35606;SDS011;21729;58.392;15.656;2024-03-22T06:07:10;3.72;;;3.42;;
35606;SDS011;21729;58.392;15.656;2024-03-22T06:09:36;4.47;;;3.58;;
35606;SDS011;21729;58.392;15.656;2024-03-22T06:12:10;4.00;;;3.50;;
35606;SDS011;21729;58.392;15.656;2024-03-22T06:14:37;4.43;;;3.17;;
35606;SDS011;21729;58.392;15.656;2024-03-22T06:17:04;3.80;;;2.88;;
35606;SDS011;21729;58.392;15.656;2024-03-22T06:19:31;3.30;;;3.00;;
35606;SDS011;21729;58.392;15.656;2024-03-22T06:21:58;3.30;;;2.90;;
35606;SDS011;21729;58.392;15.656;2024-03-22T06:24:25;2.60;;;2.37;;
35606;SDS011;21729;58.392;15.656;2024-03-22T06:26:52;2.30;;;2.10;;
35606;SDS011;21729;58.392;15.656;2024-03-22T06:29:18;2.67;;;2.38;;
35606;SDS011;21729;58.392;15.656;2024-03-22T06:31:45;2.55;;;2.35;;
35606;SDS011;21729;58.392;15.656;2024-03-22T06:34:11;2.88;;;2.40;;
35606;SDS011;21729;58.392;15.656;2024-03-22T06:36:38;3.03;;;2.30;;
35606;SDS011;21729;58.392;15.656;2024-03-22T06:39:05;2.20;;;2.00;;
35606;SDS011;21729;58.392;15.656;2024-03-22T06:41:34;2.08;;;1.95;;
35606;SDS011;21729;58.392;15.656;2024-03-22T06:44:00;2.20;;;1.77;;
35606;SDS011;21729;58.392;15.656;2024-03-22T06:46:27;1.80;;;1.67;;
35606;SDS011;21729;58.392;15.656;2024-03-22T06:48:53;1.57;;;1.47;;
35606;SDS011;21729;58.392;15.656;2024-03-22T06:51:21;1.40;;;1.30;;
35606;SDS011;21729;58.392;15.656;2024-03-22T06:53:47;1.45;;;1.35;;
35606;SDS011;21729;58.392;15.656;2024-03-22T06:56:14;1.20;;;1.10;;
35606;SDS011;21729;58.392;15.656;2024-03-22T06:58:41;1.17;;;1.10;;
35606;SDS011;21729;58.392;15.656;2024-03-22T07:01:09;1.00;;;1.00;;
35606;SDS011;21729;58.392;15.656;2024-03-22T07:03:35;0.90;;;0.90;;
35606;SDS011;21729;58.392;15.656;2024-03-22T07:06:02;0.88;;;0.88;;
35606;SDS011;21729;58.392;15.656;2024-03-22T07:08:28;0.80;;;0.80;;
35606;SDS011;21729;58.392;15.656;2024-03-22T07:10:55;0.90;;;0.90;;
35606;SDS011;21729;58.392;15.656;2024-03-22T07:13:21;0.77;;;0.77;;
35606;SDS011;21729;58.392;15.656;2024-03-22T07:15:50;0.80;;;0.80;;
35606;SDS011;21729;58.392;15.656;2024-03-22T07:18:16;0.57;;;0.57;;
35606;SDS011;21729;58.392;15.656;2024-03-22T07:20:44;0.70;;;0.70;;
35606;SDS011;21729;58.392;15.656;2024-03-22T07:23:10;0.68;;;0.68;;
35606;SDS011;21729;58.392;15.656;2024-03-22T07:25:38;0.73;;;0.73;;
35606;SDS011;21729;58.392;15.656;2024-03-22T07:28:04;0.70;;;0.70;;
35606;SDS011;21729;58.392;15.656;2024-03-22T07:30:31;0.55;;;0.55;;
35606;SDS011;21729;58.392;15.656;2024-03-22T07:32:58;0.88;;;0.70;;
35606;SDS011;21729;58.392;15.656;2024-03-22T07:35:26;0.50;;;0.50;;
35606;SDS011;21729;58.392;15.656;2024-03-22T07:37:52;0.60;;;0.60;;
35606;SDS011;21729;58.392;15.656;2024-03-22T07:40:19;0.60;;;0.60;;
35606;SDS011;21729;58.392;15.656;2024-03-22T07:42:45;0.40;;;0.40;;
35606;SDS011;21729;58.392;15.656;2024-03-22T07:45:12;0.52;;;0.52;;
35606;SDS011;21729;58.392;15.656;2024-03-22T07:47:38;0.47;;;0.47;;
35606;SDS011;21729;58.392;15.656;2024-03-22T07:50:09;0.50;;;0.50;;
35606;SDS011;21729;58.392;15.656;2024-03-22T07:52:35;0.60;;;0.60;;
35606;SDS011;21729;58.392;15.656;2024-03-22T07:55:02;0.40;;;0.40;;
35606;SDS011;21729;58.392;15.656;2024-03-22T07:57:29;0.50;;;0.50;;
35606;SDS011;21729;58.392;15.656;2024-03-22T07:59:56;0.50;;;0.50;;
35606;SDS011;21729;58.392;15.656;2024-03-22T08:02:22;0.50;;;0.50;;
35606;SDS011;21729;58.392;15.656;2024-03-22T08:04:50;0.90;;;0.60;;
35606;SDS011;21729;58.392;15.656;2024-03-22T08:07:17;0.52;;;0.52;;
35606;SDS011;21729;58.392;15.656;2024-03-22T08:09:44;0.40;;;0.40;;
35606;SDS011;21729;58.392;15.656;2024-03-22T08:12:10;0.50;;;0.50;;
35606;SDS011;21729;58.392;15.656;2024-03-22T08:14:37;0.70;;;0.70;;
35606;SDS011;21729;58.392;15.656;2024-03-22T08:17:03;0.65;;;0.65;;
35606;SDS011;21729;58.392;15.656;2024-03-22T08:19:31;0.73;;;0.73;;
35606;SDS011;21729;58.392;15.656;2024-03-22T08:21:57;0.70;;;0.70;;
35606;SDS011;21729;58.392;15.656;2024-03-22T08:24:26;0.70;;;0.70;;
35606;SDS011;21729;58.392;15.656;2024-03-22T08:26:52;0.75;;;0.75;;
35606;SDS011;21729;58.392;15.656;2024-03-22T08:29:19;0.70;;;0.70;;
35606;SDS011;21729;58.392;15.656;2024-03-22T08:31:45;0.80;;;0.70;;
35606;SDS011;21729;58.392;15.656;2024-03-22T08:34:12;0.60;;;0.60;;
35606;SDS011;21729;58.392;15.656;2024-03-22T08:36:38;0.68;;;0.60;;
35606;SDS011;21729;58.392;15.656;2024-03-22T08:39:05;0.70;;;0.70;;
35606;SDS011;21729;58.392;15.656;2024-03-22T08:41:36;0.55;;;0.47;;
35606;SDS011;21729;58.392;15.656;2024-03-22T08:44:04;0.82;;;0.60;;
35606;SDS011;21729;58.392;15.656;2024-03-22T08:46:30;0.60;;;0.50;;
35606;SDS011;21729;58.392;15.656;2024-03-22T08:48:57;0.50;;;0.50;;
35606;SDS011;21729;58.392;15.656;2024-03-22T08:51:23;0.90;;;0.70;;
35606;SDS011;21729;58.392;15.656;2024-03-22T08:53:51;0.60;;;0.60;;
35606;SDS011;21729;58.392;15.656;2024-03-22T08:56:17;0.60;;;0.60;;
35606;SDS011;21729;58.392;15.656;2024-03-22T08:58:45;0.60;;;0.60;;
35606;SDS011;21729;58.392;15.656;2024-03-22T09:01:11;0.68;;;0.60;;
35606;SDS011;21729;58.392;15.656;2024-03-22T09:03:38;0.75;;;0.57;;
35606;SDS011;21729;58.392;15.656;2024-03-22T09:06:05;0.45;;;0.38;;
35606;SDS011;21729;58.392;15.656;2024-03-22T09:08:32;0.80;;;0.45;;
35606;SDS011;21729;58.392;15.656;2024-03-22T09:10:59;0.30;;;0.30;;
35606;SDS011;21729;58.392;15.656;2024-03-22T09:13:26;0.80;;;0.50;;
35606;SDS011;21729;58.392;15.656;2024-03-22T09:15:57;0.80;;;0.50;;
35606;SDS011;21729;58.392;15.656;2024-03-22T09:18:24;0.50;;;0.50;;
35606;SDS011;21729;58.392;15.656;2024-03-22T09:20:50;0.50;;;0.40;;
35606;SDS011;21729;58.392;15.656;2024-03-22T09:23:18;0.60;;;0.50;;
35606;SDS011;21729;58.392;15.656;2024-03-22T09:25:44;0.60;;;0.38;;
35606;SDS011;21729;58.392;15.656;2024-03-22T09:28:12;0.40;;;0.40;;
35606;SDS011;21729;58.392;15.656;2024-03-22T09:30:38;0.50;;;0.40;;
35606;SDS011;21729;58.392;15.656;2024-03-22T09:33:07;1.10;;;0.47;;
35606;SDS011;21729;58.392;15.656;2024-03-22T09:35:33;0.93;;;0.43;;
35606;SDS011;21729;58.392;15.656;2024-03-22T09:38:00;0.82;;;0.60;;
35606;SDS011;21729;58.392;15.656;2024-03-22T09:40:27;1.35;;;0.60;;
35606;SDS011;21729;58.392;15.656;2024-03-22T09:42:54;0.55;;;0.50;;
35606;SDS011;21729;58.392;15.656;2024-03-22T09:45:27;2.20;;;1.00;;
35606;SDS011;21729;58.392;15.656;2024-03-22T09:47:56;0.75;;;0.65;;
35606;SDS011;21729;58.392;15.656;2024-03-22T09:50:24;1.13;;;0.70;;
35606;SDS011;21729;58.392;15.656;2024-03-22T09:52:52;1.23;;;0.60;;
35606;SDS011;21729;58.392;15.656;2024-03-22T09:55:20;1.40;;;0.80;;
35606;SDS011;21729;58.392;15.656;2024-03-22T09:57:49;2.03;;;0.60;;
35606;SDS011;21729;58.392;15.656;2024-03-22T10:00:18;1.90;;;0.63;;
35606;SDS011;21729;58.392;15.656;2024-03-22T10:02:47;1.70;;;0.88;;
35606;SDS011;21729;58.392;15.656;2024-03-22T10:05:14;2.78;;;0.80;;
35606;SDS011;21729;58.392;15.656;2024-03-22T10:07:44;2.03;;;0.70;;
35606;SDS011;21729;58.392;15.656;2024-03-22T10:10:10;1.80;;;0.70;;
35606;SDS011;21729;58.392;15.656;2024-03-22T10:12:39;1.20;;;0.70;;
35606;SDS011;21729;58.392;15.656;2024-03-22T10:15:06;2.43;;;0.83;;
35606;SDS011;21729;58.392;15.656;2024-03-22T10:17:34;2.13;;;0.90;;
35606;SDS011;21729;58.392;15.656;2024-03-22T10:20:01;1.92;;;0.98;;
35606;SDS011;21729;58.392;15.656;2024-03-22T10:22:27;1.58;;;0.73;;
35606;SDS011;21729;58.392;15.656;2024-03-22T10:24:56;1.60;;;0.70;;
35606;SDS011;21729;58.392;15.656;2024-03-22T10:27:26;2.90;;;1.20;;
35606;SDS011;21729;58.392;15.656;2024-03-22T10:29:54;2.20;;;0.90;;
35606;SDS011;21729;58.392;15.656;2024-03-22T10:32:20;1.90;;;0.70;;
35606;SDS011;21729;58.392;15.656;2024-03-22T10:34:47;2.30;;;0.90;;
35606;SDS011;21729;58.392;15.656;2024-03-22T10:37:15;1.80;;;0.73;;
35606;SDS011;21729;58.392;15.656;2024-03-22T10:39:42;2.10;;;0.82;;
35606;SDS011;21729;58.392;15.656;2024-03-22T10:42:10;1.75;;;0.80;;
35606;SDS011;21729;58.392;15.656;2024-03-22T10:44:38;1.23;;;0.70;;
35606;SDS011;21729;58.392;15.656;2024-03-22T10:47:04;2.33;;;1.00;;
35606;SDS011;21729;58.392;15.656;2024-03-22T10:49:36;2.13;;;0.90;;
35606;SDS011;21729;58.392;15.656;2024-03-22T10:52:03;2.40;;;0.80;;
35606;SDS011;21729;58.392;15.656;2024-03-22T10:54:33;2.20;;;0.70;;
35606;SDS011;21729;58.392;15.656;2024-03-22T10:57:01;1.80;;;0.80;;
35606;SDS011;21729;58.392;15.656;2024-03-22T10:59:34;3.65;;;1.30;;
35606;SDS011;21729;58.392;15.656;2024-03-22T11:02:02;2.08;;;0.80;;
35606;SDS011;21729;58.392;15.656;2024-03-22T11:04:32;1.60;;;1.00;;
35606;SDS011;21729;58.392;15.656;2024-03-22T11:06:58;1.98;;;1.05;;
35606;SDS011;21729;58.392;15.656;2024-03-22T11:09:25;2.72;;;0.70;;
35606;SDS011;21729;58.392;15.656;2024-03-22T11:11:52;1.58;;;0.80;;
35606;SDS011;21729;58.392;15.656;2024-03-22T11:14:20;1.08;;;0.60;;
35606;SDS011;21729;58.392;15.656;2024-03-22T11:16:48;1.95;;;0.77;;
35606;SDS011;21729;58.392;15.656;2024-03-22T11:19:15;3.25;;;0.93;;
35606;SDS011;21729;58.392;15.656;2024-03-22T11:21:41;1.50;;;1.00;;
35606;SDS011;21729;58.392;15.656;2024-03-22T11:24:08;1.48;;;0.65;;
35606;SDS011;21729;58.392;15.656;2024-03-22T11:26:36;1.00;;;0.50;;
35606;SDS011;21729;58.392;15.656;2024-03-22T11:29:03;1.77;;;0.70;;
35606;SDS011;21729;58.392;15.656;2024-03-22T11:31:29;2.63;;;0.80;;
35606;SDS011;21729;58.392;15.656;2024-03-22T11:33:57;1.60;;;0.70;;
35606;SDS011;21729;58.392;15.656;2024-03-22T11:36:23;2.72;;;0.80;;
35606;SDS011;21729;58.392;15.656;2024-03-22T11:38:50;1.88;;;0.70;;
35606;SDS011;21729;58.392;15.656;2024-03-22T11:41:19;3.17;;;1.08;;
35606;SDS011;21729;58.392;15.656;2024-03-22T11:43:49;3.30;;;1.10;;
35606;SDS011;21729;58.392;15.656;2024-03-22T11:46:15;4.97;;;1.17;;
35606;SDS011;21729;58.392;15.656;2024-03-22T11:48:43;2.70;;;1.00;;
35606;SDS011;21729;58.392;15.656;2024-03-22T11:51:11;5.22;;;1.90;;
35606;SDS011;21729;58.392;15.656;2024-03-22T11:53:38;4.45;;;1.33;;
35606;SDS011;21729;58.392;15.656;2024-03-22T11:56:04;4.35;;;1.20;;
35606;SDS011;21729;58.392;15.656;2024-03-22T11:58:31;3.25;;;1.42;;
35606;SDS011;21729;58.392;15.656;2024-03-22T12:00:57;5.30;;;1.40;;
35606;SDS011;21729;58.392;15.656;2024-03-22T12:03:24;4.38;;;1.35;;
35606;SDS011;21729;58.392;15.656;2024-03-22T12:05:52;4.57;;;1.60;;
35606;SDS011;21729;58.392;15.656;2024-03-22T12:08:22;6.95;;;1.98;;
35606;SDS011;21729;58.392;15.656;2024-03-22T12:10:48;5.97;;;1.63;;
35606;SDS011;21729;58.392;15.656;2024-03-22T12:13:15;4.53;;;1.50;;
35606;SDS011;21729;58.392;15.656;2024-03-22T12:15:42;4.40;;;1.55;;
35606;SDS011;21729;58.392;15.656;2024-03-22T12:18:09;6.30;;;1.53;;
35606;SDS011;21729;58.392;15.656;2024-03-22T12:20:35;5.57;;;1.75;;
35606;SDS011;21729;58.392;15.656;2024-03-22T12:23:02;5.40;;;1.75;;
35606;SDS011;21729;58.392;15.656;2024-03-22T12:25:29;7.78;;;2.00;;
35606;SDS011;21729;58.392;15.656;2024-03-22T12:27:56;6.47;;;2.05;;
35606;SDS011;21729;58.392;15.656;2024-03-22T12:30:22;6.47;;;1.97;;
35606;SDS011;21729;58.392;15.656;2024-03-22T12:32:51;6.95;;;2.03;;
35606;SDS011;21729;58.392;15.656;2024-03-22T12:35:17;6.43;;;1.90;;
35606;SDS011;21729;58.392;15.656;2024-03-22T12:37:44;6.83;;;1.93;;
35606;SDS011;21729;58.392;15.656;2024-03-22T12:40:10;9.68;;;2.45;;
35606;SDS011;21729;58.392;15.656;2024-03-22T12:42:40;10.32;;;3.35;;
35606;SDS011;21729;58.392;15.656;2024-03-22T12:45:07;10.43;;;3.10;;
35606;SDS011;21729;58.392;15.656;2024-03-22T12:47:34;10.88;;;3.47;;
35606;SDS011;21729;58.392;15.656;2024-03-22T12:50:00;8.73;;;3.10;;
35606;SDS011;21729;58.392;15.656;2024-03-22T12:52:29;8.63;;;2.15;;
35606;SDS011;21729;58.392;15.656;2024-03-22T12:54:55;8.68;;;2.15;;
35606;SDS011;21729;58.392;15.656;2024-03-22T12:57:22;8.33;;;2.17;;
35606;SDS011;21729;58.392;15.656;2024-03-22T12:59:50;10.23;;;2.17;;
35606;SDS011;21729;58.392;15.656;2024-03-22T13:02:17;7.07;;;1.60;;
35606;SDS011;21729;58.392;15.656;2024-03-22T13:04:43;6.50;;;1.60;;
35606;SDS011;21729;58.392;15.656;2024-03-22T13:07:10;9.57;;;3.10;;
35606;SDS011;21729;58.392;15.656;2024-03-22T13:09:37;7.10;;;2.10;;
35606;SDS011;21729;58.392;15.656;2024-03-22T13:12:04;9.80;;;2.70;;
35606;SDS011;21729;58.392;15.656;2024-03-22T13:14:30;8.20;;;2.20;;
35606;SDS011;21729;58.392;15.656;2024-03-22T13:16:59;10.48;;;2.55;;
35606;SDS011;21729;58.392;15.656;2024-03-22T13:19:24;11.25;;;3.83;;
35606;SDS011;21729;58.392;15.656;2024-03-22T13:21:51;9.60;;;3.40;;
35606;SDS011;21729;58.392;15.656;2024-03-22T13:24:17;13.23;;;3.80;;
35606;SDS011;21729;58.392;15.656;2024-03-22T13:26:45;14.90;;;3.78;;
35606;SDS011;21729;58.392;15.656;2024-03-22T13:29:11;9.05;;;2.30;;
35606;SDS011;21729;58.392;15.656;2024-03-22T13:31:39;10.73;;;2.20;;
35606;SDS011;21729;58.392;15.656;2024-03-22T13:34:06;11.45;;;2.40;;
35606;SDS011;21729;58.392;15.656;2024-03-22T13:36:33;8.63;;;2.28;;
35606;SDS011;21729;58.392;15.656;2024-03-22T13:39:01;11.13;;;2.70;;
35606;SDS011;21729;58.392;15.656;2024-03-22T13:41:29;10.95;;;2.53;;
35606;SDS011;21729;58.392;15.656;2024-03-22T13:43:55;11.45;;;2.47;;
35606;SDS011;21729;58.392;15.656;2024-03-22T13:46:23;10.60;;;2.70;;
35606;SDS011;21729;58.392;15.656;2024-03-22T13:48:51;7.22;;;2.10;;
35606;SDS011;21729;58.392;15.656;2024-03-22T13:51:19;9.48;;;2.30;;
35606;SDS011;21729;58.392;15.656;2024-03-22T13:53:46;10.80;;;2.90;;
35606;SDS011;21729;58.392;15.656;2024-03-22T13:56:13;9.80;;;2.25;;
35606;SDS011;21729;58.392;15.656;2024-03-22T13:58:39;9.50;;;2.50;;
35606;SDS011;21729;58.392;15.656;2024-03-22T14:01:06;10.20;;;2.67;;
35606;SDS011;21729;58.392;15.656;2024-03-22T14:03:32;8.52;;;2.15;;
35606;SDS011;21729;58.392;15.656;2024-03-22T14:05:59;10.25;;;2.58;;
35606;SDS011;21729;58.392;15.656;2024-03-22T14:08:29;12.05;;;3.05;;
35606;SDS011;21729;58.392;15.656;2024-03-22T14:10:56;11.10;;;2.70;;
35606;SDS011;21729;58.392;15.656;2024-03-22T14:13:22;9.80;;;2.60;;
35606;SDS011;21729;58.392;15.656;2024-03-22T14:15:49;9.73;;;2.20;;
35606;SDS011;21729;58.392;15.656;2024-03-22T14:18:16;10.35;;;2.85;;
35606;SDS011;21729;58.392;15.656;2024-03-22T14:20:43;14.70;;;4.60;;
35606;SDS011;21729;58.392;15.656;2024-03-22T14:23:09;13.85;;;4.45;;
35606;SDS011;21729;58.392;15.656;2024-03-22T14:25:37;14.17;;;4.40;;
35606;SDS011;21729;58.392;15.656;2024-03-22T14:28:03;13.98;;;3.10;;
35606;SDS011;21729;58.392;15.656;2024-03-22T14:30:31;12.27;;;3.63;;
35606;SDS011;21729;58.392;15.656;2024-03-22T14:32:57;13.95;;;3.05;;